createdAt,value
2019-05-22T00:01:47.883Z,99379.95
2019-05-22T00:04:08.220Z,99383.50
2019-05-22T00:06:28.993Z,99377.48
2019-05-22T00:08:49.767Z,99377.98
2019-05-22T00:11:10.812Z,99386.09
2019-05-22T00:13:31.699Z,99383.70
2019-05-22T00:15:52.507Z,99385.59
2019-05-22T00:18:13.459Z,99394.20
2019-05-22T00:20:33.859Z,99393.89
2019-05-22T00:22:54.696Z,99388.19
2019-05-22T00:25:15.429Z,99391.20
2019-05-22T00:27:35.785Z,99388.41
2019-05-22T00:29:56.854Z,99391.96
2019-05-22T00:32:18.141Z,99391.96
2019-05-22T00:34:39.255Z,99391.11
2019-05-22T00:37:00.330Z,99390.30
2019-05-22T00:39:21.138Z,99389.15
2019-05-22T00:41:41.807Z,99395.09
2019-05-22T00:44:02.951Z,99393.20
2019-05-22T00:46:24.235Z,99396.44
2019-05-22T00:48:45.584Z,99396.44
2019-05-22T00:51:06.756Z,99401.23
2019-05-22T00:53:28.394Z,99397.48
2019-05-22T00:55:49.687Z,99393.66
2019-05-22T00:58:10.250Z,99398.03
2019-05-22T01:00:31.083Z,99395.52
2019-05-22T01:02:52.078Z,99398.77
2019-05-22T01:05:13.357Z,99393.36
2019-05-22T01:07:33.834Z,99400.11
2019-05-22T01:09:54.331Z,99400.92
2019-05-22T01:12:14.736Z,99414.13
2019-05-22T01:14:42.758Z,99407.91
2019-05-22T01:16:57.363Z,99410.62
2019-05-22T01:19:18.605Z,99413.83
2019-05-22T01:21:39.691Z,99413.55
2019-05-22T01:24:00.247Z,99416.25
2019-05-22T01:26:21.452Z,99411.35
2019-05-22T01:28:42.552Z,99417.30
2019-05-22T01:31:02.917Z,99416.76
2019-05-22T01:33:23.939Z,99415.94
2019-05-22T01:35:44.653Z,99418.65
2019-05-22T01:38:05.634Z,99415.09
2019-05-22T01:40:25.963Z,99421.34
2019-05-22T01:42:47.095Z,99424.25
2019-05-22T01:45:08.579Z,99423.44
2019-05-22T01:47:29.267Z,99430.20
2019-05-22T01:49:50.040Z,99429.34
2019-05-22T01:52:11.001Z,99429.34
2019-05-22T01:54:32.269Z,99431.23
2019-05-22T01:56:52.916Z,99427.72
2019-05-22T01:59:14.011Z,99424.17
2019-05-22T02:01:35.141Z,99429.88
2019-05-22T02:03:56.232Z,99424.70
2019-05-22T02:06:16.915Z,99432.28
2019-05-22T02:08:37.299Z,99426.56
2019-05-22T02:10:57.690Z,99428.77
2019-05-22T02:13:18.433Z,99431.97
2019-05-22T02:15:39.232Z,99430.62
2019-05-22T02:17:59.605Z,99427.61
2019-05-22T02:20:20.535Z,99426.80
2019-05-22T02:22:41.787Z,99425.44
2019-05-22T02:25:02.369Z,99428.65
2019-05-22T02:27:23.176Z,99436.76
2019-05-22T02:29:44.318Z,99422.94
2019-05-22T02:32:05.063Z,99422.94
2019-05-22T02:34:26.005Z,99428.34
2019-05-22T02:36:46.311Z,99429.69
2019-05-22T02:39:07.104Z,99439.15
2019-05-22T02:41:27.460Z,99438.34
2019-05-22T02:43:48.292Z,99437.52
2019-05-22T02:46:09.181Z,99440.50
2019-05-22T02:48:29.838Z,99443.97
2019-05-22T02:50:50.436Z,99442.08
2019-05-22T02:53:10.939Z,99437.22
2019-05-22T02:55:31.775Z,99442.08
2019-05-22T02:57:52.310Z,99446.98
2019-05-22T03:00:12.710Z,99453.12
2019-05-22T03:02:33.622Z,99449.38
2019-05-22T03:04:54.019Z,99451.23
2019-05-22T03:07:14.382Z,99455.83
2019-05-22T03:09:35.493Z,99455.28
2019-05-22T03:11:56.239Z,99458.22
2019-05-22T03:14:16.846Z,99459.87
2019-05-22T03:16:37.549Z,99454.16
2019-05-22T03:19:08.209Z,99459.56
2019-05-22T03:21:19.959Z,99460.92
2019-05-22T03:23:41.059Z,99460.61
2019-05-22T03:26:01.536Z,99459.80
2019-05-22T03:28:22.428Z,99465.20
2019-05-22T03:30:43.256Z,99460.61
2019-05-22T03:33:03.755Z,99467.05
2019-05-22T03:35:24.237Z,99470.60
2019-05-22T03:37:45.154Z,99482.95
2019-05-22T03:40:06.277Z,99477.55
2019-05-22T03:42:27.030Z,99480.80
2019-05-22T03:44:47.602Z,99480.26
2019-05-22T03:47:08.625Z,99483.50
2019-05-22T03:49:31.051Z,99480.98
2019-05-22T03:51:51.218Z,99481.30
2019-05-22T03:54:12.425Z,99480.48
2019-05-22T03:56:33.411Z,99487.74
2019-05-22T03:58:54.290Z,99483.19
2019-05-22T04:01:14.972Z,99488.81
2019-05-22T04:03:36.417Z,99494.22
2019-05-22T04:05:57.115Z,99499.09
2019-05-22T04:08:17.929Z,99498.78
2019-05-22T04:10:41.156Z,99501.79
2019-05-22T04:13:02.238Z,99502.33
2019-05-22T04:15:23.393Z,99500.75
2019-05-22T04:17:44.199Z,99505.93
2019-05-22T04:20:04.885Z,99504.39
2019-05-22T04:22:25.667Z,99510.30
2019-05-22T04:24:46.696Z,99506.33
2019-05-22T04:27:07.439Z,99508.83
2019-05-22T04:29:28.521Z,99518.60
2019-05-22T04:31:49.118Z,99522.13
2019-05-22T04:34:09.840Z,99522.74
2019-05-22T04:36:30.345Z,99526.80
2019-05-22T04:38:50.697Z,99527.61
2019-05-22T04:41:11.730Z,99525.22
2019-05-22T04:43:32.660Z,99529.27
2019-05-22T04:45:53.033Z,99530.43
2019-05-22T04:48:13.796Z,99526.88
2019-05-22T04:50:34.844Z,99533.12
2019-05-22T04:52:55.482Z,99525.02
2019-05-22T04:55:15.847Z,99528.00
2019-05-22T04:57:36.355Z,99528.55
2019-05-22T04:59:56.724Z,99526.88
2019-05-22T05:02:18.059Z,99532.51
2019-05-22T05:04:38.760Z,99534.28
2019-05-22T05:06:59.512Z,99531.62
2019-05-22T05:09:20.041Z,99530.72
2019-05-22T05:11:40.444Z,99537.78
2019-05-22T05:14:00.892Z,99531.34
2019-05-22T05:16:21.245Z,99538.61
2019-05-22T05:18:41.839Z,99539.95
2019-05-22T05:21:03.118Z,99550.45
2019-05-22T05:23:24.086Z,99544.11
2019-05-22T05:25:44.876Z,99546.00
2019-05-22T05:28:06.064Z,99545.38
2019-05-22T05:30:27.491Z,99546.53
2019-05-22T05:32:48.771Z,99555.69
2019-05-22T05:35:09.956Z,99561.90
2019-05-22T05:37:31.078Z,99566.37
2019-05-22T05:39:51.916Z,99567.44
2019-05-22T05:42:12.824Z,99570.33
2019-05-22T05:44:33.673Z,99568.16
2019-05-22T05:46:55.910Z,99571.91
2019-05-22T05:49:17.059Z,99569.42
2019-05-22T05:51:38.275Z,99579.08
2019-05-22T05:53:59.281Z,99582.63
2019-05-22T05:56:20.182Z,99576.18
2019-05-22T05:58:41.610Z,99578.03
2019-05-22T06:01:03.004Z,99577.22
2019-05-22T06:03:23.542Z,99584.28
2019-05-22T06:05:43.902Z,99591.63
2019-05-22T06:08:04.408Z,99593.83
2019-05-22T06:10:25.642Z,99590.69
2019-05-22T06:12:46.453Z,99591.84
2019-05-22T06:15:07.348Z,99593.28
2019-05-22T06:17:28.699Z,99596.70
2019-05-22T06:19:49.100Z,99601.38
2019-05-22T06:22:09.726Z,99595.33
2019-05-22T06:24:30.667Z,99603.84
2019-05-22T06:26:51.137Z,99601.16
2019-05-22T06:29:11.525Z,99601.88
2019-05-22T06:31:31.888Z,99606.56
2019-05-22T06:33:52.824Z,99606.37
2019-05-22T06:36:15.789Z,99609.34
2019-05-22T06:38:36.655Z,99611.02
2019-05-22T06:40:57.716Z,99607.89
2019-05-22T06:43:18.824Z,99610.82
2019-05-22T06:45:39.904Z,99612.17
2019-05-22T06:48:01.086Z,99613.21
2019-05-22T06:50:21.916Z,99613.52
2019-05-22T06:52:45.414Z,99615.38
2019-05-22T06:55:06.029Z,99618.62
2019-05-22T06:57:27.386Z,99620.47
2019-05-22T06:59:48.292Z,99618.08
2019-05-22T07:02:08.974Z,99619.97
2019-05-22T07:04:30.262Z,99627.54
2019-05-22T07:06:50.554Z,99627.23
2019-05-22T07:09:11.503Z,99627.23
2019-05-22T07:11:32.729Z,99625.88
2019-05-22T07:13:53.602Z,99628.27
2019-05-22T07:16:14.356Z,99632.32
2019-05-22T07:18:35.587Z,99630.97
2019-05-22T07:20:59.269Z,99626.91
2019-05-22T07:23:20.534Z,99634.20
2019-05-22T07:25:41.914Z,99633.67
2019-05-22T07:28:03.452Z,99636.38
2019-05-22T07:30:24.799Z,99636.38
2019-05-22T07:32:46.099Z,99638.80
2019-05-22T07:35:06.905Z,99636.59
2019-05-22T07:37:27.727Z,99645.23
2019-05-22T07:39:49.133Z,99646.28
2019-05-22T07:42:09.722Z,99649.30
2019-05-22T07:44:30.625Z,99648.98
2019-05-22T07:46:51.786Z,99650.64
2019-05-22T07:49:13.422Z,99648.25
2019-05-22T07:51:50.167Z,99650.64
2019-05-22T07:53:56.091Z,99653.66
2019-05-22T07:56:19.329Z,99652.59
2019-05-22T07:58:44.925Z,99650.73
2019-05-22T08:01:05.926Z,99649.38
2019-05-22T08:03:27.272Z,99649.70
2019-05-22T08:05:47.884Z,99650.01
2019-05-22T08:08:08.745Z,99644.91
2019-05-22T08:10:29.846Z,99644.38
2019-05-22T08:12:50.691Z,99645.20
2019-05-22T08:15:11.684Z,99652.80
2019-05-22T08:17:33.096Z,99648.33
2019-05-22T08:19:54.784Z,99653.73
2019-05-22T08:22:16.173Z,99656.44
2019-05-22T08:24:36.974Z,99653.20
2019-05-22T08:26:58.250Z,99655.09
2019-05-22T08:29:18.832Z,99657.80
2019-05-22T08:31:40.260Z,99666.18
2019-05-22T08:34:00.469Z,99666.18
2019-05-22T08:36:20.915Z,99664.74
2019-05-22T08:38:41.997Z,99663.84
2019-05-22T08:41:02.334Z,99673.07
2019-05-22T08:43:22.759Z,99675.23
2019-05-22T08:45:43.259Z,99675.23
2019-05-22T08:48:04.968Z,99668.17
2019-05-22T08:50:26.079Z,99669.02
2019-05-22T08:52:47.250Z,99673.07
2019-05-22T08:55:08.760Z,99670.68
2019-05-22T08:57:30.774Z,99667.13
2019-05-22T08:59:51.286Z,99673.70
2019-05-22T09:02:12.096Z,99671.50
2019-05-22T09:04:32.841Z,99678.06
2019-05-22T09:06:54.135Z,99679.41
2019-05-22T09:09:14.989Z,99679.70
2019-05-22T09:11:35.939Z,99680.77
2019-05-22T09:13:58.098Z,99677.22
2019-05-22T09:16:19.504Z,99683.97
2019-05-22T09:18:40.703Z,99676.71
2019-05-22T09:21:01.844Z,99679.41
2019-05-22T09:23:23.624Z,99683.75
2019-05-22T09:25:44.128Z,99681.89
2019-05-22T09:28:06.204Z,99683.25
2019-05-22T09:30:27.055Z,99688.03
2019-05-22T09:32:48.355Z,99679.41
2019-05-22T09:35:09.352Z,99682.94
2019-05-22T09:37:30.454Z,99686.98
2019-05-22T09:39:51.161Z,99682.94
2019-05-22T09:42:12.457Z,99689.69
2019-05-22T09:44:33.542Z,99692.70
2019-05-22T09:46:54.444Z,99688.87
2019-05-22T09:49:14.891Z,99696.45
2019-05-22T09:51:36.238Z,99698.93
2019-05-22T09:53:56.636Z,99691.86
2019-05-22T09:56:18.075Z,99699.97
2019-05-22T09:58:39.280Z,99700.91
2019-05-22T10:00:59.895Z,99701.53
2019-05-22T10:03:20.824Z,99696.54
2019-05-22T10:05:42.163Z,99702.48
2019-05-22T10:08:02.776Z,99701.95
2019-05-22T10:10:23.200Z,99701.53
2019-05-22T10:12:43.750Z,99704.33
2019-05-22T10:15:05.024Z,99698.11
2019-05-22T10:17:26.221Z,99697.57
2019-05-22T10:19:46.675Z,99700.19
2019-05-22T10:22:07.395Z,99704.77
2019-05-22T10:24:28.108Z,99708.20
2019-05-22T10:26:48.691Z,99706.63
2019-05-22T10:29:09.470Z,99706.94
2019-05-22T10:31:30.475Z,99706.72
2019-05-22T10:33:52.199Z,99710.27
2019-05-22T10:36:13.267Z,99715.05
2019-05-22T10:38:34.819Z,99716.41
2019-05-22T10:40:58.985Z,99712.97
2019-05-22T10:43:18.021Z,99709.55
2019-05-22T10:45:39.096Z,99708.47
2019-05-22T10:47:59.742Z,99711.40
2019-05-22T10:50:20.801Z,99705.37
2019-05-22T10:52:41.712Z,99706.72
2019-05-22T10:55:02.095Z,99701.13
2019-05-22T10:57:22.825Z,99697.38
2019-05-22T10:59:43.868Z,99699.23
2019-05-22T11:02:05.056Z,99698.11
2019-05-22T11:04:25.857Z,99698.20
2019-05-22T11:06:46.367Z,99694.95
2019-05-22T11:09:06.939Z,99691.22
2019-05-22T11:11:27.760Z,99697.97
2019-05-22T11:14:00.627Z,99693.41
2019-05-22T11:16:10.581Z,99697.25
2019-05-22T11:18:31.970Z,99703.50
2019-05-22T11:20:52.371Z,99700.17
2019-05-22T11:23:12.875Z,99694.77
2019-05-22T11:25:33.923Z,99700.36
2019-05-22T11:27:54.899Z,99695.18
2019-05-22T11:30:16.074Z,99701.21
2019-05-22T11:32:36.826Z,99693.73
2019-05-22T11:34:57.608Z,99684.77
2019-05-22T11:37:18.330Z,99685.93
2019-05-22T11:39:42.423Z,99687.06
2019-05-22T11:42:01.159Z,99680.52
2019-05-22T11:44:21.915Z,99684.67
2019-05-22T11:46:42.614Z,99683.63
2019-05-22T11:49:03.379Z,99690.16
2019-05-22T11:51:24.218Z,99685.57
2019-05-22T11:53:45.344Z,99678.00
2019-05-22T11:56:06.117Z,99679.13
2019-05-22T11:58:26.307Z,99684.53
2019-05-22T12:00:47.151Z,99684.84
2019-05-22T12:03:08.484Z,99684.22
2019-05-22T12:05:29.267Z,99683.94
2019-05-22T12:07:50.172Z,99691.20
2019-05-22T12:10:10.840Z,99684.34
2019-05-22T12:12:35.183Z,99684.24
2019-05-22T12:14:53.892Z,99683.01
2019-05-22T12:17:14.691Z,99671.74
2019-05-22T12:19:35.015Z,99679.13
2019-05-22T12:21:56.011Z,99680.46
2019-05-22T12:24:27.068Z,99683.03
2019-05-22T12:26:39.748Z,99681.34
2019-05-22T12:29:00.485Z,99682.28
2019-05-22T12:31:21.631Z,99684.56
2019-05-22T12:33:42.907Z,99681.63
2019-05-22T12:36:03.724Z,99682.34
2019-05-22T12:38:26.912Z,99682.96
2019-05-22T12:40:46.564Z,99680.65
2019-05-22T12:43:07.874Z,99680.96
2019-05-22T12:45:29.001Z,99674.82
2019-05-22T12:47:50.153Z,99674.17
2019-05-22T12:50:11.003Z,99675.30
2019-05-22T12:52:32.823Z,99677.35
2019-05-22T12:54:53.572Z,99682.77
2019-05-22T12:57:14.671Z,99674.42
2019-05-22T12:59:35.362Z,99673.37
2019-05-22T13:01:56.486Z,99675.77
2019-05-22T13:04:17.247Z,99671.83
2019-05-22T13:06:38.958Z,99671.68
2019-05-22T13:08:59.365Z,99667.63
2019-05-22T13:11:20.858Z,99663.88
2019-05-22T13:13:41.564Z,99664.48
2019-05-22T13:16:02.021Z,99669.67
2019-05-22T13:18:22.604Z,99663.95
2019-05-22T13:20:44.517Z,99666.58
2019-05-22T13:23:06.624Z,99671.26
2019-05-22T13:25:27.468Z,99666.66
2019-05-22T13:27:48.835Z,99668.55
2019-05-22T13:30:09.850Z,99668.23
2019-05-22T13:32:32.401Z,99669.28
2019-05-22T13:34:53.059Z,99667.93
2019-05-22T13:37:14.738Z,99671.98
2019-05-22T13:39:35.386Z,99676.59
2019-05-22T13:41:56.691Z,99664.61
2019-05-22T13:44:17.310Z,99667.63
2019-05-22T13:46:38.939Z,99665.95
2019-05-22T13:48:59.333Z,99664.91
2019-05-22T13:51:19.993Z,99661.47
2019-05-22T13:53:47.517Z,99659.81
2019-05-22T13:56:02.992Z,99656.37
2019-05-22T13:58:23.723Z,99660.51
2019-05-22T14:00:45.197Z,99661.94
2019-05-22T14:03:06.056Z,99656.53
2019-05-22T14:05:26.834Z,99656.53
2019-05-22T14:07:48.101Z,99655.80
2019-05-22T14:10:12.497Z,99657.58
2019-05-22T14:12:33.823Z,99656.37
2019-05-22T14:14:54.748Z,99651.69
2019-05-22T14:17:16.017Z,99646.05
2019-05-22T14:19:36.731Z,99649.91
2019-05-22T14:21:57.557Z,99648.55
2019-05-22T14:24:18.778Z,99649.30
2019-05-22T14:26:39.557Z,99650.64
2019-05-22T14:29:00.287Z,99648.17
2019-05-22T14:31:20.639Z,99653.58
2019-05-22T14:33:41.035Z,99653.05
2019-05-22T14:36:01.696Z,99656.45
2019-05-22T14:38:22.717Z,99653.31
2019-05-22T14:40:43.989Z,99661.62
2019-05-22T14:43:04.593Z,99651.95
2019-05-22T14:45:24.967Z,99649.33
2019-05-22T14:47:45.759Z,99651.50
2019-05-22T14:50:07.382Z,99653.39
2019-05-22T14:52:28.021Z,99653.47
2019-05-22T14:54:49.331Z,99654.52
2019-05-22T14:57:10.986Z,99654.01
2019-05-22T14:59:32.142Z,99647.23
2019-05-22T15:01:53.055Z,99646.08
2019-05-22T15:04:14.246Z,99645.96
2019-05-22T15:06:35.331Z,99646.97
2019-05-22T15:08:56.452Z,99633.20
2019-05-22T15:11:17.583Z,99639.53
2019-05-22T15:13:38.183Z,99634.50
2019-05-22T15:15:59.077Z,99632.19
2019-05-22T15:18:20.203Z,99627.38
2019-05-22T15:20:41.692Z,99632.64
2019-05-22T15:23:02.587Z,99633.25
2019-05-22T15:25:23.500Z,99630.73
2019-05-22T15:27:44.945Z,99631.34
2019-05-22T15:30:06.077Z,99627.86
2019-05-22T15:32:27.341Z,99627.05
2019-05-22T15:34:47.752Z,99623.29
2019-05-22T15:37:08.547Z,99621.09
2019-05-22T15:39:29.826Z,99627.13
2019-05-22T15:41:50.259Z,99625.53
2019-05-22T15:44:11.317Z,99617.59
2019-05-22T15:46:31.978Z,99615.19
2019-05-22T15:48:53.384Z,99619.32
2019-05-22T15:51:13.692Z,99614.44
2019-05-22T15:53:35.415Z,99618.09
2019-05-22T15:55:58.054Z,99613.14
2019-05-22T15:58:18.299Z,99614.94
2019-05-22T16:00:38.894Z,99609.52
2019-05-22T16:02:59.859Z,99609.20
2019-05-22T16:05:20.909Z,99612.22
2019-05-22T16:07:41.580Z,99609.67
2019-05-22T16:10:02.351Z,99611.97
2019-05-22T16:12:23.117Z,99607.02
2019-05-22T16:14:43.901Z,99612.13
2019-05-22T16:17:04.907Z,99607.14
2019-05-22T16:19:25.747Z,99606.33
2019-05-22T16:21:46.639Z,99605.48
2019-05-22T16:24:07.621Z,99605.71
2019-05-22T16:26:28.795Z,99606.38
2019-05-22T16:28:50.201Z,99601.70
2019-05-22T16:31:11.232Z,99606.81
2019-05-22T16:33:32.443Z,99610.41
2019-05-22T16:35:54.165Z,99599.63
2019-05-22T16:38:15.061Z,99606.98
2019-05-22T16:40:36.180Z,99600.61
2019-05-22T16:42:56.966Z,99605.33
2019-05-22T16:45:18.102Z,99606.14
2019-05-22T16:47:39.091Z,99606.14
2019-05-22T16:50:00.363Z,99605.33
2019-05-22T16:52:21.807Z,99606.98
2019-05-22T16:54:42.467Z,99604.52
2019-05-22T16:57:03.055Z,99606.91
2019-05-22T16:59:24.086Z,99606.80
2019-05-22T17:01:58.684Z,99610.58
2019-05-22T17:04:07.001Z,99603.39
2019-05-22T17:06:27.967Z,99602.27
2019-05-22T17:08:49.533Z,99603.74
2019-05-22T17:11:11.320Z,99597.20
2019-05-22T17:13:32.551Z,99600.77
2019-05-22T17:15:53.583Z,99592.84
2019-05-22T17:18:14.919Z,99590.87
2019-05-22T17:20:37.457Z,99593.07
2019-05-22T17:22:58.630Z,99592.68
2019-05-22T17:25:19.989Z,99594.45
2019-05-22T17:27:40.634Z,99594.61
2019-05-22T17:30:01.779Z,99598.86
2019-05-22T17:32:22.226Z,99599.28
2019-05-22T17:34:43.072Z,99597.12
2019-05-22T17:37:03.786Z,99603.06
2019-05-22T17:39:24.454Z,99599.52
2019-05-22T17:41:45.574Z,99601.99
2019-05-22T17:44:06.111Z,99597.43
2019-05-22T17:46:27.141Z,99596.38
2019-05-22T17:48:47.731Z,99602.30
2019-05-22T17:51:08.502Z,99603.34
2019-05-22T17:53:29.697Z,99596.50
2019-05-22T17:55:50.717Z,99600.13
2019-05-22T17:58:11.627Z,99594.07
2019-05-22T18:00:32.445Z,99596.51
2019-05-22T18:02:53.433Z,99598.75
2019-05-22T18:05:15.469Z,99602.73
2019-05-22T18:07:36.867Z,99595.63
2019-05-22T18:09:57.695Z,99595.30
2019-05-22T18:12:24.682Z,99598.94
2019-05-22T18:14:40.718Z,99597.66
2019-05-22T18:17:01.571Z,99592.62
2019-05-22T18:19:22.196Z,99596.26
2019-05-22T18:21:43.871Z,99596.26
2019-05-22T18:24:04.660Z,99593.31
2019-05-22T18:26:25.467Z,99594.67
2019-05-22T18:28:46.051Z,99593.01
2019-05-22T18:31:07.794Z,99595.72
2019-05-22T18:33:35.246Z,99598.42
2019-05-22T18:35:57.430Z,99593.17
2019-05-22T18:38:19.708Z,99592.05
2019-05-22T18:40:41.088Z,99596.30
2019-05-22T18:43:04.559Z,99596.16
2019-05-22T18:45:25.652Z,99594.93
2019-05-22T18:47:46.437Z,99598.41
2019-05-22T18:50:07.132Z,99593.42
2019-05-22T18:52:40.693Z,99597.17
2019-05-22T18:54:51.051Z,99591.45
2019-05-22T18:57:12.215Z,99600.61
2019-05-22T18:59:32.560Z,99597.28
2019-05-22T19:01:53.302Z,99600.53
2019-05-22T19:04:14.089Z,99600.22
2019-05-22T19:06:36.712Z,99606.45
2019-05-22T19:09:01.843Z,99602.11
2019-05-22T19:11:24.381Z,99598.25
2019-05-22T19:13:45.900Z,99603.36
2019-05-22T19:16:07.321Z,99601.41
2019-05-22T19:18:28.251Z,99604.63
2019-05-22T19:20:49.141Z,99600.88
2019-05-22T19:23:10.929Z,99604.63
2019-05-22T19:25:31.596Z,99608.45
2019-05-22T19:27:52.379Z,99605.25
2019-05-22T19:30:13.556Z,99603.97
2019-05-22T19:32:34.494Z,99603.97
2019-05-22T19:34:55.023Z,99603.23
2019-05-22T19:37:16.875Z,99607.30
2019-05-22T19:39:37.924Z,99604.36
2019-05-22T19:42:02.777Z,99610.39
2019-05-22T19:44:20.729Z,99617.23
2019-05-22T19:46:41.979Z,99614.02
2019-05-22T19:49:02.740Z,99619.52
2019-05-22T19:51:23.592Z,99619.83
2019-05-22T19:53:44.859Z,99623.16
2019-05-22T19:56:05.468Z,99626.98
2019-05-22T19:58:26.577Z,99625.94
2019-05-22T20:00:47.656Z,99627.59
2019-05-22T20:03:08.339Z,99630.81
2019-05-22T20:05:29.875Z,99634.75
2019-05-22T20:07:50.832Z,99627.14
2019-05-22T20:10:11.821Z,99627.45
2019-05-22T20:12:33.012Z,99625.70
2019-05-22T20:14:54.382Z,99634.36
2019-05-22T20:17:15.153Z,99640.08
2019-05-22T20:19:36.054Z,99639.55
2019-05-22T20:22:00.141Z,99633.08
2019-05-22T20:24:19.570Z,99640.16
2019-05-22T20:26:40.576Z,99632.85
2019-05-22T20:29:01.483Z,99635.05
2019-05-22T20:31:21.907Z,99634.01
2019-05-22T20:33:43.232Z,99631.58
2019-05-22T20:38:26.646Z,99626.78
2019-05-22T20:40:48.171Z,99640.39
2019-05-22T20:43:23.875Z,99630.92
2019-05-22T20:46:01.992Z,99630.41
2019-05-22T20:48:28.381Z,99639.35
2019-05-22T20:50:55.443Z,99640.20
2019-05-22T20:53:16.219Z,99635.40
2019-05-22T20:55:37.345Z,99631.34
2019-05-22T20:57:58.238Z,99644.11
2019-05-22T21:00:19.831Z,99636.52
2019-05-22T21:02:41.192Z,99637.26
2019-05-22T21:05:01.998Z,99635.91
2019-05-22T21:07:22.421Z,99643.72
2019-05-22T21:09:44.037Z,99634.98
2019-05-22T21:12:07.704Z,99639.58
2019-05-22T21:14:29.090Z,99639.81
2019-05-22T21:16:50.196Z,99640.23
2019-05-22T21:19:11.445Z,99641.28
2019-05-22T21:21:32.313Z,99643.17
2019-05-22T21:24:07.486Z,99648.48
2019-05-22T21:26:15.336Z,99648.20
2019-05-22T21:28:36.060Z,99645.70
2019-05-22T21:30:57.335Z,99644.23
2019-05-22T21:33:18.561Z,99648.21
2019-05-22T21:35:39.716Z,99654.98
2019-05-22T21:38:01.016Z,99652.27
2019-05-22T21:40:21.805Z,99652.70
2019-05-22T21:42:42.735Z,99647.28
2019-05-22T21:45:04.197Z,99649.59
2019-05-22T21:47:25.002Z,99646.05
2019-05-22T21:49:46.419Z,99646.81
2019-05-22T21:52:07.230Z,99640.24
2019-05-22T21:57:07.404Z,99635.59
2019-05-22T21:59:28.167Z,99635.80
2019-05-22T22:01:49.032Z,99637.38
2019-05-22T22:04:10.231Z,99641.13
2019-05-22T22:06:33.314Z,99642.17
2019-05-22T22:08:53.956Z,99640.73
2019-05-22T22:11:14.708Z,99643.13
2019-05-22T22:13:35.946Z,99642.28
2019-05-22T22:15:56.806Z,99641.16
2019-05-22T22:18:17.613Z,99649.81
2019-05-22T22:20:39.014Z,99648.16
2019-05-22T22:23:00.852Z,99647.62
2019-05-22T22:25:21.407Z,99646.80
2019-05-22T22:27:42.139Z,99649.20
2019-05-22T22:30:02.980Z,99648.89
2019-05-22T22:32:23.503Z,99649.92
2019-05-22T22:34:44.406Z,99650.97
2019-05-22T22:37:05.592Z,99650.16
2019-05-22T22:39:26.321Z,99645.78
2019-05-22T22:41:46.938Z,99651.70
2019-05-22T22:44:07.745Z,99653.59
2019-05-22T22:46:28.443Z,99653.82
2019-05-22T22:48:49.671Z,99656.22
2019-05-22T22:51:11.154Z,99653.82
2019-05-22T22:53:31.970Z,99654.86
2019-05-22T22:55:52.981Z,99655.91
2019-05-22T22:58:17.106Z,99653.70
2019-05-22T23:00:35.916Z,99650.69
2019-05-22T23:02:56.489Z,99649.06
2019-05-22T23:05:17.402Z,99651.45
2019-05-22T23:07:38.184Z,99654.66
2019-05-22T23:09:58.987Z,99651.34
2019-05-22T23:12:20.244Z,99653.54
2019-05-22T23:14:40.949Z,99653.23
2019-05-22T23:17:02.073Z,99647.51
2019-05-22T23:19:22.669Z,99643.67
2019-05-22T23:21:43.499Z,99646.38
2019-05-22T23:24:04.735Z,99651.25
2019-05-22T23:26:25.702Z,99644.18
2019-05-22T23:28:46.496Z,99643.36
2019-05-22T23:31:06.847Z,99643.36
2019-05-22T23:33:28.045Z,99643.05
2019-05-22T23:35:49.366Z,99649.28
2019-05-22T23:38:10.065Z,99645.45
2019-05-22T23:40:32.511Z,99641.08
2019-05-22T23:42:53.962Z,99639.73
2019-05-22T23:45:14.837Z,99647.53
2019-05-22T23:47:35.851Z,99639.22
2019-05-22T23:49:56.706Z,99648.38
2019-05-22T23:52:17.316Z,99639.95
2019-05-22T23:54:38.554Z,99653.48
2019-05-22T23:56:59.052Z,99653.48
2019-05-22T23:59:20.259Z,99650.46
